Time;durP1;ratioP1;P1;durP2;ratioP2;P2;SDS_P1;SDS_P2;PMS_P1;PMS_P2;Temp;Humidity;BMP_temperature;BMP_pressure;BME280_temperature;BME280_humidity;BME280_pressure;Samples;Min_cycle;Max_cycle;Signal;HPM_P1;HPM_P2
2021/08/05 00:02:09;;;;;;;58.17;2.53;;;16.70;1.00;;;;;;5114244;28;20475;-73
2021/08/05 00:04:36;;;;;;;57.97;2.40;;;16.70;1.00;;;;;;5114255;28;20443;-74
2021/08/05 00:07:03;;;;;;;58.50;2.50;;;16.70;1.00;;;;;;5114303;28;20445;-73
2021/08/05 00:09:31;;;;;;;58.30;2.70;;;16.70;1.00;;;;;;5113919;28;20450;-73
2021/08/05 00:11:58;;;;;;;57.97;2.50;;;16.60;1.00;;;;;;5114448;28;20502;-73
2021/08/05 00:14:25;;;;;;;57.83;2.40;;;16.60;1.00;;;;;;5114420;28;20483;-73
2021/08/05 00:16:52;;;;;;;58.03;2.50;;;16.60;1.00;;;;;;5114189;28;20444;-73
2021/08/05 00:19:19;;;;;;;58.30;2.93;;;16.60;1.00;;;;;;5113672;28;20530;-73
2021/08/05 00:21:46;;;;;;;58.60;2.60;;;16.50;1.00;;;;;;5113850;28;20557;-73
2021/08/05 00:24:13;;;;;;;58.50;2.80;;;16.50;1.00;;;;;;5113974;28;20487;-73
2021/08/05 00:26:41;;;;;;;58.30;2.40;;;16.50;1.00;;;;;;5114035;28;20534;-73
2021/08/05 00:29:08;;;;;;;57.97;2.30;;;16.40;1.00;;;;;;5113690;28;20964;-73
2021/08/05 00:31:35;;;;;;;58.20;2.40;;;16.40;1.00;;;;;;5112088;28;20470;-73
2021/08/05 00:34:02;;;;;;;58.13;2.50;;;16.40;1.00;;;;;;5113842;28;20485;-74
2021/08/05 00:36:29;;;;;;;57.87;2.40;;;16.40;1.00;;;;;;5113348;28;20487;-73
2021/08/05 00:38:56;;;;;;;58.20;2.70;;;16.40;1.00;;;;;;5113696;28;20542;-73
2021/08/05 00:41:22;;;;;;;58.17;2.47;;;16.40;1.00;;;;;;5112574;28;20554;-73
2021/08/05 00:43:51;;;;;;;58.00;2.50;;;16.40;1.00;;;;;;5113334;28;20571;-73
2021/08/05 00:46:17;;;;;;;58.03;2.50;;;16.40;1.00;;;;;;5113593;28;20475;-73
2021/08/05 00:48:44;;;;;;;58.30;3.00;;;16.40;1.00;;;;;;5113409;28;20479;-73
2021/08/05 00:51:12;;;;;;;58.30;2.37;;;16.30;1.00;;;;;;5112841;28;20503;-73
2021/08/05 00:53:40;;;;;;;57.83;2.73;;;16.30;1.00;;;;;;5113746;28;20949;-73
2021/08/05 00:56:06;;;;;;;57.97;2.60;;;16.30;1.00;;;;;;5113251;28;20455;-73
2021/08/05 00:58:33;;;;;;;57.70;2.40;;;16.30;1.00;;;;;;5113272;28;20439;-73
2021/08/05 01:01:09;;;;;;;58.17;2.47;;;16.40;1.00;;;;;;5112659;28;21005;-73
2021/08/05 01:03:40;;;;;;;58.17;3.23;;;16.40;1.00;;;;;;5111153;28;20478;-73
2021/08/05 01:06:15;;;;;;;58.20;2.40;;;16.40;1.00;;;;;;5113284;28;20455;-73
2021/08/05 01:08:47;;;;;;;58.07;2.40;;;16.40;1.00;;;;;;5113281;28;20534;-73
2021/08/05 01:11:20;;;;;;;58.00;2.60;;;16.30;1.00;;;;;;5112827;28;20558;-73
2021/08/05 01:13:51;;;;;;;58.07;2.60;;;16.30;1.00;;;;;;5112847;28;20543;-73
2021/08/05 01:16:24;;;;;;;58.13;2.40;;;16.30;1.00;;;;;;5113106;28;20458;-73
2021/08/05 01:18:53;;;;;;;59.07;3.10;;;16.30;1.00;;;;;;5112614;28;20935;-73
2021/08/05 01:21:28;;;;;;;57.73;2.33;;;16.30;1.00;;;;;;5112386;28;20834;-73
2021/08/05 01:23:59;;;;;;;57.77;2.40;;;16.30;1.00;;;;;;5112572;28;21001;-73
2021/08/05 01:26:43;;;;;;;58.00;2.60;;;16.20;1.00;;;;;;5112662;28;20955;-73
2021/08/05 01:29:10;;;;;;;57.97;2.40;;;16.20;1.00;;;;;;5112713;28;20885;-73
2021/08/05 01:31:37;;;;;;;57.57;2.40;;;16.20;1.00;;;;;;5112716;28;20768;-73
2021/08/05 01:34:04;;;;;;;58.00;2.30;;;16.20;1.00;;;;;;5104351;28;20452;-73
2021/08/05 01:36:31;;;;;;;58.10;2.30;;;16.20;1.00;;;;;;5092251;28;20959;-73
2021/08/05 01:38:59;;;;;;;58.20;2.30;;;16.20;1.00;;;;;;5091710;28;20456;-73
2021/08/05 01:41:28;;;;;;;57.77;2.40;;;16.20;1.00;;;;;;5091610;28;20472;-73
2021/08/05 01:43:57;;;;;;;57.60;2.43;;;16.20;1.00;;;;;;5105183;28;20487;-73
2021/08/05 01:46:24;;;;;;;58.40;2.70;;;16.10;1.00;;;;;;5112370;28;20447;-73
2021/08/05 01:48:53;;;;;;;57.77;2.40;;;16.10;1.00;;;;;;5112230;28;20539;-73
2021/08/05 01:51:21;;;;;;;58.13;2.60;;;16.00;1.00;;;;;;5112414;28;20566;-73
2021/08/05 01:53:50;;;;;;;58.07;2.40;;;16.00;1.00;;;;;;5111919;28;20530;-73
2021/08/05 01:56:20;;;;;;;58.00;2.40;;;16.00;1.00;;;;;;5112352;28;20956;-73
2021/08/05 01:58:47;;;;;;;58.50;2.67;;;15.90;1.00;;;;;;5111947;28;20443;-73
2021/08/05 02:01:16;;;;;;;57.67;2.43;;;15.90;1.00;;;;;;5111783;28;20574;-72
2021/08/05 02:03:47;;;;;;;57.97;2.57;;;15.90;1.00;;;;;;5112027;28;20487;-72
2021/08/05 02:06:20;;;;;;;57.87;2.50;;;15.90;1.00;;;;;;5110831;28;20833;-72
2021/08/05 02:08:54;;;;;;;58.17;2.40;;;15.90;1.00;;;;;;5112208;28;20449;-72
2021/08/05 02:11:24;;;;;;;57.97;2.60;;;15.90;1.00;;;;;;5111701;28;20463;-73
2021/08/05 02:13:52;;;;;;;57.67;2.60;;;15.90;1.00;;;;;;5112618;28;20444;-73
2021/08/05 02:16:25;;;;;;;57.63;2.50;;;15.80;1.00;;;;;;5112576;28;20446;-73
2021/08/05 02:18:53;;;;;;;58.30;2.90;;;15.80;1.00;;;;;;5111914;28;20454;-73
2021/08/05 02:21:22;;;;;;;57.67;2.47;;;15.80;1.00;;;;;;5111435;28;20554;-73
2021/08/05 02:23:50;;;;;;;57.77;2.80;;;15.80;1.00;;;;;;5111717;28;20478;-73
2021/08/05 02:26:18;;;;;;;58.20;2.60;;;15.80;1.00;;;;;;5112410;28;20569;-73
2021/08/05 02:28:46;;;;;;;57.87;2.50;;;15.80;1.00;;;;;;5112152;28;20538;-73
2021/08/05 02:31:14;;;;;;;57.93;2.40;;;15.90;1.00;;;;;;5111468;28;20550;-73
2021/08/05 02:33:44;;;;;;;57.87;2.50;;;15.90;1.00;;;;;;5111928;28;20466;-73
2021/08/05 02:36:11;;;;;;;58.17;3.00;;;15.80;1.00;;;;;;5111778;28;20460;-73
2021/08/05 02:38:38;;;;;;;58.60;3.30;;;15.80;1.00;;;;;;5110206;28;20453;-73
2021/08/05 02:41:07;;;;;;;57.93;2.40;;;15.80;1.00;;;;;;5111124;28;20473;-73
2021/08/05 02:43:35;;;;;;;58.20;2.50;;;15.80;1.00;;;;;;5111771;28;20930;-73
2021/08/05 02:46:05;;;;;;;57.77;2.50;;;15.80;1.00;;;;;;5111963;28;20894;-73
2021/08/05 02:48:34;;;;;;;58.07;2.37;;;15.80;1.00;;;;;;5111741;28;20438;-73
2021/08/05 02:51:03;;;;;;;57.93;2.30;;;15.70;1.00;;;;;;5111143;28;20549;-73
2021/08/05 02:53:30;;;;;;;57.87;3.10;;;15.70;1.00;;;;;;5112197;28;20861;-73
2021/08/05 02:55:58;;;;;;;57.93;2.70;;;15.60;1.00;;;;;;5111958;28;20447;-73
2021/08/05 02:58:25;;;;;;;57.83;2.60;;;15.50;1.00;;;;;;5111776;28;20844;-73
2021/08/05 03:00:52;;;;;;;58.17;2.50;;;15.50;1.00;;;;;;5110949;28;20984;-73
2021/08/05 03:03:22;;;;;;;58.27;2.50;;;15.40;1.00;;;;;;5111713;28;20799;-73
2021/08/05 03:05:51;;;;;;;57.73;2.50;;;15.40;1.00;;;;;;5115233;28;20949;-73
2021/08/05 03:08:19;;;;;;;58.30;2.53;;;15.30;1.00;;;;;;5115354;28;20473;-73
2021/08/05 03:10:46;;;;;;;58.33;2.70;;;15.20;1.00;;;;;;5113110;28;20473;-72
2021/08/05 03:13:13;;;;;;;58.40;2.70;;;15.10;1.00;;;;;;5115315;28;20437;-73
2021/08/05 03:15:40;;;;;;;58.07;2.60;;;15.20;1.00;;;;;;5115299;28;20536;-73
2021/08/05 03:18:07;;;;;;;58.03;2.60;;;15.10;1.00;;;;;;5115123;28;20534;-73
2021/08/05 03:20:34;;;;;;;58.23;2.60;;;15.10;1.00;;;;;;5114795;28;20470;-73
2021/08/05 03:23:01;;;;;;;58.20;2.50;;;15.00;1.00;;;;;;5115069;28;20532;-73
2021/08/05 03:25:29;;;;;;;58.17;2.53;;;15.00;1.00;;;;;;5115141;28;20464;-73
2021/08/05 03:27:56;;;;;;;58.17;2.53;;;15.00;1.00;;;;;;5115232;28;20446;-73
2021/08/05 03:30:23;;;;;;;58.13;2.40;;;14.90;1.00;;;;;;5114770;28;20461;-73
2021/08/05 03:32:49;;;;;;;57.77;2.67;;;14.90;1.00;;;;;;5115206;28;20449;-73
2021/08/05 03:35:16;;;;;;;58.50;2.70;;;14.80;1.00;;;;;;5115081;28;20456;-73
2021/08/05 03:37:43;;;;;;;58.23;2.40;;;14.80;1.00;;;;;;5115032;28;20451;-74
2021/08/05 03:40:10;;;;;;;58.13;2.50;;;14.80;1.00;;;;;;5114401;28;20467;-73
2021/08/05 03:42:38;;;;;;;58.20;2.50;;;14.70;1.00;;;;;;5112751;28;20532;-73
2021/08/05 03:45:06;;;;;;;58.07;2.57;;;14.70;1.00;;;;;;5114447;28;20509;-73
2021/08/05 03:47:33;;;;;;;58.37;2.50;;;14.60;1.00;;;;;;5114880;28;20448;-73
2021/08/05 03:50:00;;;;;;;58.30;2.80;;;14.60;1.00;;;;;;5114518;28;20446;-73
2021/08/05 03:52:27;;;;;;;58.40;2.57;;;14.60;1.00;;;;;;5114711;28;20545;-73
2021/08/05 03:54:54;;;;;;;59.00;3.00;;;14.60;1.00;;;;;;5114870;28;20486;-73
2021/08/05 03:57:21;;;;;;;58.50;2.80;;;14.50;1.00;;;;;;5114637;28;20489;-73
2021/08/05 03:59:49;;;;;;;58.23;2.80;;;14.50;1.00;;;;;;5113787;28;20540;-72
2021/08/05 04:02:16;;;;;;;58.20;2.60;;;14.50;1.00;;;;;;5114265;28;20485;-73
2021/08/05 04:04:42;;;;;;;58.17;2.53;;;14.50;1.00;;;;;;5114241;28;20570;-73
2021/08/05 04:07:09;;;;;;;57.80;2.60;;;14.50;1.00;;;;;;5114334;28;20534;-73
2021/08/05 04:09:36;;;;;;;58.27;2.60;;;14.50;1.00;;;;;;5114067;28;20529;-73
2021/08/05 04:12:03;;;;;;;58.17;2.60;;;14.50;1.00;;;;;;5114342;28;20553;-73
2021/08/05 04:14:30;;;;;;;58.17;2.60;;;14.50;1.00;;;;;;5113970;28;20518;-73
2021/08/05 04:16:58;;;;;;;57.97;2.60;;;14.40;1.00;;;;;;5113523;28;20895;-72
2021/08/05 04:19:26;;;;;;;58.10;2.63;;;14.50;1.00;;;;;;5114065;28;20522;-72
2021/08/05 04:21:53;;;;;;;57.97;2.63;;;14.40;1.00;;;;;;5114232;28;20470;-72
2021/08/05 04:24:20;;;;;;;58.20;2.60;;;14.40;1.00;;;;;;5114156;28;20489;-73
2021/08/05 04:26:47;;;;;;;58.17;2.90;;;14.40;1.00;;;;;;5113978;28;20454;-73
2021/08/05 04:29:14;;;;;;;58.33;2.70;;;14.40;1.00;;;;;;5113903;28;20446;-72
2021/08/05 04:31:41;;;;;;;58.17;2.70;;;14.40;1.00;;;;;;5114077;28;20557;-73
2021/08/05 04:34:09;;;;;;;58.57;3.17;;;14.40;1.30;;;;;;5114002;28;20449;-73
2021/08/05 04:36:36;;;;;;;58.03;2.57;;;14.30;3.90;;;;;;5113785;28;20816;-73
2021/08/05 04:39:03;;;;;;;59.47;5.07;;;14.40;7.50;;;;;;5113832;28;20471;-73
2021/08/05 04:41:30;;;;;;;58.20;2.70;;;14.50;10.40;;;;;;5113365;28;20938;-73
2021/08/05 04:43:57;;;;;;;58.23;2.67;;;14.50;11.00;;;;;;5113750;28;20851;-73
2021/08/05 04:46:24;;;;;;;58.27;2.63;;;14.50;11.40;;;;;;5113865;28;20533;-74
2021/08/05 04:48:51;;;;;;;58.17;2.70;;;14.60;13.30;;;;;;5113794;28;20449;-73
2021/08/05 04:51:20;;;;;;;58.20;2.60;;;14.70;13.90;;;;;;5113192;28;20561;-74
2021/08/05 04:53:46;;;;;;;60.40;3.23;;;14.80;13.70;;;;;;5113436;28;20507;-73
2021/08/05 04:56:13;;;;;;;58.87;3.13;;;15.00;12.40;;;;;;5113670;28;20541;-73
2021/08/05 04:58:40;;;;;;;58.17;2.60;;;15.10;11.40;;;;;;5113729;28;20529;-73
2021/08/05 05:01:07;;;;;;;58.17;2.60;;;15.10;9.00;;;;;;5112955;28;20566;-73
2021/08/05 05:03:34;;;;;;;58.40;2.60;;;15.20;5.90;;;;;;5113194;28;20450;-73
2021/08/05 05:06:01;;;;;;;57.90;2.53;;;15.20;3.60;;;;;;5113449;28;20796;-73
2021/08/05 05:08:29;;;;;;;58.17;2.97;;;15.30;2.40;;;;;;5113085;28;20537;-73
2021/08/05 05:10:57;;;;;;;59.20;2.70;;;15.30;1.00;;;;;;5113243;28;20552;-73
2021/08/05 05:13:24;;;;;;;58.30;2.83;;;15.30;1.00;;;;;;5113023;28;20455;-73
2021/08/05 05:15:51;;;;;;;58.07;2.40;;;15.30;1.60;;;;;;5113190;28;20818;-73
2021/08/05 05:18:20;;;;;;;58.50;2.70;;;15.40;1.50;;;;;;5113162;28;20532;-73
2021/08/05 05:20:47;;;;;;;57.97;2.60;;;15.50;1.70;;;;;;5112920;28;20493;-73
2021/08/05 05:23:14;;;;;;;57.93;2.40;;;15.50;1.00;;;;;;5113243;28;20537;-73
2021/08/05 05:25:43;;;;;;;58.30;2.60;;;15.60;1.70;;;;;;5113403;28;20577;-73
2021/08/05 05:28:11;;;;;;;58.07;2.40;;;15.70;1.00;;;;;;5113121;28;20488;-73
2021/08/05 05:30:38;;;;;;;58.37;2.80;;;15.70;1.00;;;;;;5113199;28;20550;-73
2021/08/05 05:33:06;;;;;;;58.13;2.50;;;15.80;1.00;;;;;;5113225;28;20530;-73
2021/08/05 05:35:33;;;;;;;58.60;2.60;;;15.80;1.00;;;;;;5113360;28;20474;-73
2021/08/05 05:38:01;;;;;;;58.17;2.73;;;15.90;1.00;;;;;;5113112;28;20543;-72
2021/08/05 05:40:28;;;;;;;58.30;2.93;;;15.90;1.00;;;;;;5112479;28;20546;-72
2021/08/05 05:42:57;;;;;;;58.20;2.40;;;15.90;1.00;;;;;;5112564;28;20459;-72
2021/08/05 05:45:24;;;;;;;57.87;2.50;;;16.00;1.00;;;;;;5112578;28;20478;-72
2021/08/05 05:47:51;;;;;;;58.07;2.40;;;16.00;1.00;;;;;;5112453;28;20457;-72
2021/08/05 05:50:19;;;;;;;58.03;2.40;;;16.00;1.00;;;;;;5111992;28;20470;-72
2021/08/05 05:52:48;;;;;;;58.07;2.60;;;16.00;1.00;;;;;;5112547;28;20864;-73
2021/08/05 05:55:15;;;;;;;58.07;2.87;;;16.00;1.00;;;;;;5112469;28;20444;-72
2021/08/05 05:57:42;;;;;;;57.77;2.60;;;16.00;1.00;;;;;;5112464;28;20470;-72
2021/08/05 06:00:12;;;;;;;58.10;2.40;;;15.90;1.00;;;;;;5112112;28;20560;-72
2021/08/05 06:02:39;;;;;;;57.97;2.40;;;15.90;1.00;;;;;;5112256;28;20450;-71
2021/08/05 06:05:07;;;;;;;58.07;2.37;;;15.90;1.00;;;;;;5112219;28;21102;-72
2021/08/05 06:07:46;;;;;;;58.10;2.60;;;16.00;1.00;;;;;;5112474;28;20538;-72
2021/08/05 06:10:14;;;;;;;57.87;2.50;;;16.00;1.00;;;;;;5112078;28;20461;-72
2021/08/05 06:12:41;;;;;;;57.97;2.40;;;16.00;1.00;;;;;;5112183;28;20447;-72
2021/08/05 06:15:09;;;;;;;58.17;2.60;;;16.00;1.00;;;;;;5112049;28;20533;-72
2021/08/05 06:17:39;;;;;;;58.30;2.60;;;16.10;1.00;;;;;;5112433;28;20610;-72
2021/08/05 06:20:07;;;;;;;58.70;2.60;;;16.10;1.00;;;;;;5112207;28;20454;-72
2021/08/05 06:22:34;;;;;;;57.67;2.43;;;16.10;1.00;;;;;;5112124;28;20451;-72
2021/08/05 06:25:00;;;;;;;58.20;2.73;;;16.10;1.00;;;;;;5112091;28;20485;-72
2021/08/05 06:27:27;;;;;;;57.87;2.57;;;16.10;1.00;;;;;;5112067;28;20443;-72
2021/08/05 06:29:54;;;;;;;57.57;2.50;;;16.20;1.00;;;;;;5111668;28;20952;-74
2021/08/05 06:32:21;;;;;;;58.07;2.60;;;16.20;1.00;;;;;;5112121;28;20538;-73
2021/08/05 06:34:49;;;;;;;57.77;2.53;;;16.20;1.00;;;;;;5111797;28;20548;-74
2021/08/05 06:37:16;;;;;;;58.20;2.50;;;16.20;1.00;;;;;;5112110;28;20486;-74
2021/08/05 06:39:43;;;;;;;57.70;2.43;;;16.20;1.00;;;;;;5114308;28;20529;-74
2021/08/05 06:42:09;;;;;;;57.90;2.37;;;16.30;1.00;;;;;;5115858;28;20660;-74
2021/08/05 06:44:37;;;;;;;58.17;2.70;;;16.30;1.00;;;;;;5115792;28;20484;-74
2021/08/05 06:47:05;;;;;;;58.30;2.40;;;16.30;1.00;;;;;;5113565;28;20447;-73
2021/08/05 06:49:33;;;;;;;57.83;2.40;;;16.40;1.00;;;;;;5113787;28;20950;-75
2021/08/05 06:52:01;;;;;;;58.20;2.63;;;16.40;1.00;;;;;;5115833;28;20551;-75
2021/08/05 06:54:28;;;;;;;58.10;2.90;;;16.50;1.00;;;;;;5113813;28;20530;-75
2021/08/05 06:56:55;;;;;;;57.77;2.40;;;16.60;1.00;;;;;;5115260;28;20865;-75
2021/08/05 06:59:21;;;;;;;58.37;2.97;;;16.70;1.00;;;;;;5115083;28;20444;-75
2021/08/05 07:01:48;;;;;;;57.93;2.40;;;16.80;1.00;;;;;;5115327;28;20500;-75
2021/08/05 07:04:15;;;;;;;57.87;2.53;;;16.90;1.00;;;;;;5115378;28;20474;-75
2021/08/05 07:06:42;;;;;;;58.00;2.40;;;17.00;1.00;;;;;;5115125;28;20538;-75
2021/08/05 07:09:10;;;;;;;57.77;2.40;;;17.20;1.00;;;;;;5115031;28;20538;-75
2021/08/05 07:11:37;;;;;;;57.97;2.80;;;17.40;1.00;;;;;;5114810;28;20603;-75
2021/08/05 07:14:05;;;;;;;57.87;2.53;;;17.70;1.00;;;;;;5115019;28;20452;-75
2021/08/05 07:16:32;;;;;;;57.80;2.40;;;17.90;1.00;;;;;;5115095;28;20456;-75
2021/08/05 07:18:58;;;;;;;58.07;2.70;;;18.20;1.00;;;;;;5115364;28;20894;-75
2021/08/05 07:21:25;;;;;;;58.00;2.30;;;18.60;1.00;;;;;;5114570;28;20551;-75
2021/08/05 07:23:52;;;;;;;57.93;2.70;;;18.90;1.00;;;;;;5115052;28;20488;-76
2021/08/05 07:26:21;;;;;;;57.67;2.80;;;19.30;1.00;;;;;;5113598;28;20919;-75
2021/08/05 07:28:48;;;;;;;57.67;2.40;;;19.60;1.00;;;;;;5115046;28;20541;-75
2021/08/05 07:31:15;;;;;;;57.40;2.40;;;19.80;1.00;;;;;;5114617;28;20500;-75
2021/08/05 07:33:43;;;;;;;58.03;2.80;;;20.00;1.00;;;;;;5115091;28;20484;-75
2021/08/05 07:36:10;;;;;;;58.07;2.30;;;20.10;1.00;;;;;;5114796;28;20568;-75
2021/08/05 07:38:37;;;;;;;57.67;2.30;;;20.10;1.00;;;;;;5114743;28;20537;-75
2021/08/05 07:41:04;;;;;;;57.87;2.43;;;20.10;1.00;;;;;;5114316;28;20465;-75
2021/08/05 07:43:32;;;;;;;58.03;2.60;;;20.20;1.00;;;;;;5114724;28;20458;-74
2021/08/05 07:45:59;;;;;;;58.10;2.23;;;20.30;1.00;;;;;;5114731;28;20484;-73
2021/08/05 07:48:26;;;;;;;57.90;3.03;;;20.30;1.00;;;;;;5114831;28;20877;-74
2021/08/05 07:50:53;;;;;;;57.80;2.23;;;20.40;1.00;;;;;;5112786;28;20553;-72
2021/08/05 07:53:20;;;;;;;57.77;2.50;;;20.50;1.00;;;;;;5114824;28;20477;-74
2021/08/05 07:55:46;;;;;;;57.87;3.13;;;20.60;1.00;;;;;;5114524;28;20449;-74
2021/08/05 07:58:13;;;;;;;57.60;2.50;;;20.70;1.00;;;;;;5112872;28;20532;-74
2021/08/05 08:00:41;;;;;;;57.57;2.13;;;20.70;1.00;;;;;;5113832;28;20759;-73
2021/08/05 08:03:11;;;;;;;57.80;2.30;;;20.80;1.00;;;;;;5114047;28;20482;-74
2021/08/05 08:05:39;;;;;;;57.97;2.83;;;20.80;1.00;;;;;;5114163;28;20569;-74
2021/08/05 08:08:07;;;;;;;58.10;2.40;;;20.80;1.00;;;;;;5114258;28;20482;-73
2021/08/05 08:10:34;;;;;;;57.73;2.23;;;20.90;1.00;;;;;;5113925;28;20549;-74
2021/08/05 08:13:01;;;;;;;57.73;2.20;;;20.90;1.00;;;;;;5114043;28;20993;-74
2021/08/05 08:15:28;;;;;;;57.77;2.17;;;21.00;1.00;;;;;;5114196;28;20479;-74
2021/08/05 08:17:56;;;;;;;57.40;2.30;;;21.00;1.00;;;;;;5114056;28;20444;-74
2021/08/05 08:20:23;;;;;;;58.17;2.50;;;21.10;1.00;;;;;;5113725;28;20928;-74
2021/08/05 08:22:51;;;;;;;57.47;2.20;;;21.10;1.00;;;;;;5113877;28;20534;-73
2021/08/05 08:25:18;;;;;;;57.67;2.30;;;21.00;1.00;;;;;;5114035;28;20480;-74
2021/08/05 08:27:45;;;;;;;57.60;2.20;;;21.00;1.00;;;;;;5114019;28;20487;-74
2021/08/05 08:30:13;;;;;;;57.37;2.10;;;21.00;1.00;;;;;;5111879;28;20464;-74
2021/08/05 08:32:43;;;;;;;57.77;2.10;;;21.00;1.00;;;;;;5113684;28;20538;-74
2021/08/05 08:35:12;;;;;;;57.20;2.17;;;21.00;1.00;;;;;;5113975;28;20455;-73
2021/08/05 08:37:39;;;;;;;57.53;2.40;;;20.90;1.00;;;;;;5114031;28;20491;-74
2021/08/05 08:40:08;;;;;;;57.87;2.57;;;20.90;1.00;;;;;;5113256;28;20857;-74
2021/08/05 08:42:35;;;;;;;57.97;2.30;;;20.80;1.00;;;;;;5113372;28;20450;-74
2021/08/05 08:45:03;;;;;;;57.90;2.20;;;20.70;1.00;;;;;;5113426;28;20578;-73
2021/08/05 08:47:31;;;;;;;57.80;2.00;;;20.60;1.00;;;;;;5113401;28;20531;-74
2021/08/05 08:49:59;;;;;;;57.47;2.30;;;20.60;1.00;;;;;;5113026;28;20534;-74
2021/08/05 08:52:30;;;;;;;57.70;2.07;;;20.70;1.00;;;;;;5112806;28;20446;-74
2021/08/05 08:54:59;;;;;;;57.47;2.07;;;20.90;1.00;;;;;;5112875;28;20483;-74
2021/08/05 08:57:31;;;;;;;57.67;2.30;;;21.20;1.00;;;;;;5112923;28;20539;-74
2021/08/05 08:59:59;;;;;;;57.47;2.17;;;21.30;1.00;;;;;;5111006;28;20537;-74
2021/08/05 09:02:26;;;;;;;57.63;2.20;;;21.40;1.00;;;;;;5112345;28;20974;-73
2021/08/05 09:04:54;;;;;;;57.77;2.30;;;21.40;1.00;;;;;;5112855;28;20540;-73
2021/08/05 09:07:23;;;;;;;57.73;2.20;;;21.40;1.00;;;;;;5113242;28;20452;-74
2021/08/05 09:09:52;;;;;;;57.80;2.20;;;21.40;1.00;;;;;;5112731;28;20449;-74
2021/08/05 09:12:19;;;;;;;57.87;2.27;;;21.40;1.00;;;;;;5112948;28;20540;-74
2021/08/05 09:14:48;;;;;;;57.37;2.17;;;21.40;1.00;;;;;;5113327;28;20555;-74
2021/08/05 09:17:24;;;;;;;58.10;2.50;;;21.40;1.00;;;;;;5113254;28;20540;-74
2021/08/05 09:19:52;;;;;;;57.77;2.30;;;21.40;1.00;;;;;;5112793;28;20544;-74
2021/08/05 09:22:34;;;;;;;59.43;3.23;;;21.50;1.00;;;;;;5112654;28;20527;-74
2021/08/05 09:25:25;;;;;;;59.07;2.47;;;21.70;1.00;;;;;;5112557;28;20451;-74
2021/08/05 09:27:54;;;;;;;58.27;2.83;;;21.90;1.00;;;;;;5112933;28;20532;-74
2021/08/05 09:30:38;;;;;;;57.87;2.40;;;22.10;1.00;;;;;;5110149;28;20508;-74
2021/08/05 09:33:07;;;;;;;57.47;2.50;;;22.30;1.00;;;;;;5092234;28;20525;-74
2021/08/05 09:35:34;;;;;;;57.77;2.77;;;22.40;1.00;;;;;;5092267;28;20450;-74
2021/08/05 09:38:20;;;;;;;57.63;2.20;;;22.40;1.00;;;;;;5092465;28;20450;-74
2021/08/05 09:40:51;;;;;;;57.67;2.30;;;22.30;1.00;;;;;;5092069;28;20494;-74
2021/08/05 09:43:25;;;;;;;58.27;2.30;;;22.30;1.00;;;;;;5091943;28;20866;-74
2021/08/05 09:45:52;;;;;;;57.77;2.30;;;22.30;1.00;;;;;;5091668;28;20588;-74
2021/08/05 09:48:35;;;;;;;57.60;2.30;;;22.30;1.00;;;;;;5092006;28;20446;-74
2021/08/05 09:51:06;;;;;;;58.00;2.57;;;22.40;1.00;;;;;;5090048;28;20884;-74
2021/08/05 09:53:33;;;;;;;57.93;2.30;;;22.50;1.00;;;;;;5092182;28;20446;-74
2021/08/05 09:56:10;;;;;;;57.37;2.07;;;22.70;1.00;;;;;;5092026;28;21037;-74
2021/08/05 09:58:37;;;;;;;57.57;2.00;;;22.80;1.00;;;;;;5092379;28;20521;-74
2021/08/05 10:01:07;;;;;;;58.00;2.20;;;23.00;1.00;;;;;;5091664;28;20554;-74
2021/08/05 10:03:35;;;;;;;57.77;2.10;;;23.50;1.00;;;;;;5108233;28;20445;-74
2021/08/05 10:06:02;;;;;;;57.83;2.10;;;23.80;1.00;;;;;;5111964;28;20572;-75
2021/08/05 10:08:36;;;;;;;57.70;2.03;;;24.10;1.00;;;;;;5111997;28;20473;-74
2021/08/05 10:11:04;;;;;;;58.40;3.13;;;24.60;1.00;;;;;;5111884;28;20465;-74
2021/08/05 10:13:35;;;;;;;58.07;2.87;;;24.80;1.00;;;;;;5111406;28;20525;-74
2021/08/05 10:16:02;;;;;;;58.00;2.20;;;24.70;1.00;;;;;;5112229;28;20968;-74
2021/08/05 10:18:32;;;;;;;57.97;2.27;;;24.60;1.00;;;;;;5112203;28;20449;-74
2021/08/05 10:21:00;;;;;;;57.53;2.47;;;24.90;1.00;;;;;;5111647;28;20576;-74
2021/08/05 10:23:28;;;;;;;57.60;2.20;;;25.20;1.00;;;;;;5112077;28;20520;-74
2021/08/05 10:25:57;;;;;;;57.70;2.30;;;25.10;1.00;;;;;;5111438;28;20478;-74
2021/08/05 10:28:25;;;;;;;57.57;2.00;;;24.90;1.00;;;;;;5112134;28;20826;-74
2021/08/05 10:30:55;;;;;;;57.60;2.20;;;24.70;1.00;;;;;;5111539;28;20462;-74
2021/08/05 10:33:23;;;;;;;57.73;2.20;;;24.40;1.00;;;;;;5110196;28;20537;-74
2021/08/05 10:35:50;;;;;;;57.77;2.40;;;24.40;1.00;;;;;;5111981;28;20550;-74
2021/08/05 10:38:18;;;;;;;57.97;2.50;;;25.60;1.00;;;;;;5112213;28;20530;-74
2021/08/05 10:40:45;;;;;;;57.80;2.20;;;27.60;1.00;;;;;;5111774;28;20557;-74
2021/08/05 10:43:13;;;;;;;57.80;2.33;;;29.50;1.00;;;;;;5111638;28;20875;-74
2021/08/05 10:45:41;;;;;;;57.57;2.40;;;31.20;1.00;;;;;;5111304;28;20953;-74
2021/08/05 10:48:10;;;;;;;57.23;2.30;;;32.60;1.00;;;;;;5111840;28;20480;-74
2021/08/05 10:50:41;;;;;;;57.23;2.20;;;33.60;1.00;;;;;;5111424;28;20469;-74
2021/08/05 10:53:13;;;;;;;57.47;2.00;;;33.40;1.00;;;;;;5111956;28;20441;-74
2021/08/05 10:55:40;;;;;;;57.13;2.07;;;32.50;1.00;;;;;;5111862;28;20445;-74
2021/08/05 10:58:14;;;;;;;57.60;2.20;;;31.20;1.00;;;;;;5111358;28;20532;-74
2021/08/05 11:01:08;;;;;;;57.80;2.30;;;30.00;1.00;;;;;;5110769;28;20504;-74
2021/08/05 11:03:48;;;;;;;58.07;2.43;;;28.70;1.00;;;;;;5086307;28;20511;-74
2021/08/05 11:06:34;;;;;;;57.77;2.20;;;27.70;1.00;;;;;;5110045;28;20504;-74
2021/08/05 11:09:33;;;;;;;57.47;2.07;;;27.20;1.00;;;;;;5111477;28;20442;-75
2021/08/05 11:12:34;;;;;;;57.60;2.10;;;27.30;1.00;;;;;;5068514;28;20467;-74
2021/08/05 11:15:01;;;;;;;57.80;2.10;;;27.80;1.00;;;;;;5111545;28;20536;-75
2021/08/05 11:17:27;;;;;;;57.57;2.10;;;28.80;1.00;;;;;;5111656;28;20473;-74
2021/08/05 11:20:17;;;;;;;57.67;2.20;;;30.00;1.00;;;;;;5111430;28;20885;-74
2021/08/05 11:22:45;;;;;;;57.37;2.00;;;30.80;1.00;;;;;;5111658;28;20496;-74
2021/08/05 11:25:12;;;;;;;57.33;2.00;;;31.30;1.00;;;;;;5113503;28;20527;-75
2021/08/05 11:27:44;;;;;;;57.57;2.07;;;31.70;1.00;;;;;;5114976;28;21044;-74
2021/08/05 11:30:43;;;;;;;57.87;2.50;;;31.00;1.00;;;;;;5114941;28;20473;-74
2021/08/05 11:33:43;;;;;;;57.47;2.03;;;30.30;1.00;;;;;;5115467;28;20455;-73
2021/08/05 11:36:22;;;;;;;57.63;2.17;;;29.60;1.00;;;;;;5113189;28;20441;-74
2021/08/05 11:38:57;;;;;;;57.40;1.80;;;28.90;1.00;;;;;;5115193;28;20445;-73
2021/08/05 11:41:42;;;;;;;57.57;2.00;;;28.30;1.00;;;;;;5114528;28;20557;-75
2021/08/05 11:44:33;;;;;;;57.77;2.03;;;27.70;1.00;;;;;;5113787;28;20569;-75
2021/08/05 11:47:26;;;;;;;57.73;2.00;;;27.10;1.00;;;;;;5093828;28;20489;-75
2021/08/05 11:49:56;;;;;;;57.73;2.10;;;26.70;1.00;;;;;;5093955;28;20446;-74
2021/08/05 11:52:32;;;;;;;57.97;2.30;;;26.50;1.00;;;;;;5094372;28;20449;-74
2021/08/05 11:55:01;;;;;;;57.77;2.20;;;26.30;1.00;;;;;;5094446;28;20539;-74
2021/08/05 11:57:34;;;;;;;57.77;2.00;;;26.30;1.00;;;;;;5094282;28;20530;-74
2021/08/05 12:00:02;;;;;;;57.53;2.00;;;26.20;1.00;;;;;;5094130;28;20449;-74
2021/08/05 12:02:30;;;;;;;57.50;2.23;;;26.20;1.00;;;;;;5094719;28;20532;-74
2021/08/05 12:04:57;;;;;;;57.67;1.97;;;26.20;1.00;;;;;;5093912;28;20454;-74
2021/08/05 12:07:32;;;;;;;57.57;2.10;;;26.20;1.00;;;;;;5101535;28;20479;-74
2021/08/05 12:10:03;;;;;;;57.47;2.20;;;26.60;1.00;;;;;;5114353;28;20543;-74
2021/08/05 12:12:34;;;;;;;57.70;2.30;;;27.10;1.00;;;;;;5114215;28;20480;-74
2021/08/05 12:15:01;;;;;;;57.67;2.00;;;27.40;1.00;;;;;;5114307;28;20650;-74
2021/08/05 12:17:34;;;;;;;57.47;1.80;;;28.50;1.00;;;;;;5114113;28;20438;-74
2021/08/05 12:20:01;;;;;;;57.70;1.90;;;29.60;1.00;;;;;;5113796;28;20496;-74
2021/08/05 12:22:38;;;;;;;57.43;1.90;;;30.60;1.00;;;;;;5114167;28;20528;-74
2021/08/05 12:25:11;;;;;;;57.47;2.10;;;31.30;1.00;;;;;;5114011;28;20873;-74
2021/08/05 12:27:38;;;;;;;57.47;2.07;;;32.20;1.00;;;;;;5113617;28;20476;-73
2021/08/05 12:30:08;;;;;;;57.23;2.20;;;33.50;1.00;;;;;;5113804;28;20442;-73
2021/08/05 12:33:01;;;;;;;57.27;1.83;;;35.00;1.00;;;;;;5113603;28;20475;-74
2021/08/05 12:35:28;;;;;;;57.33;2.10;;;36.50;1.00;;;;;;5113799;28;20500;-74
2021/08/05 12:38:04;;;;;;;57.00;1.70;;;36.10;1.00;;;;;;5111154;28;20537;-72
2021/08/05 12:40:31;;;;;;;57.27;1.83;;;34.80;1.00;;;;;;5113520;28;20552;-73
2021/08/05 12:42:59;;;;;;;57.47;2.20;;;33.40;1.00;;;;;;5114190;28;20473;-74
2021/08/05 12:45:27;;;;;;;57.27;2.07;;;32.20;1.00;;;;;;5113387;28;20481;-74
2021/08/05 12:47:54;;;;;;;57.43;2.03;;;31.30;1.00;;;;;;5113279;28;20577;-74
2021/08/05 12:50:21;;;;;;;57.80;2.20;;;30.70;1.00;;;;;;5113339;28;20495;-74
2021/08/05 12:52:48;;;;;;;57.57;1.90;;;30.10;1.00;;;;;;5113406;28;20526;-74
2021/08/05 12:55:17;;;;;;;58.10;2.40;;;29.70;1.00;;;;;;5113226;28;20950;-74
2021/08/05 12:57:43;;;;;;;57.60;2.07;;;29.70;1.00;;;;;;5113865;28;20474;-75